Time;durP1;ratioP1;P1;durP2;ratioP2;P2;SDS_P1;SDS_P2;PMS_P1;PMS_P2;Temp;Humidity;BMP_temperature;BMP_pressure;BME280_temperature;BME280_humidity;BME280_pressure;Samples;Min_cycle;Max_cycle;Signal;HPM_P1;HPM_P2
2022/12/17 13:06:39;;;;;;;87.03;31.15;;;;;;;3.04;100.00;102461.00;5068691;28;20064;-52
2022/12/17 13:09:24;;;;;;;77.20;30.38;;;;;;;3.29;100.00;102465.44;5075150;28;20064;-49
2022/12/17 13:11:58;;;;;;;96.55;31.40;;;;;;;3.41;100.00;102470.81;5076560;28;20041;-49
2022/12/17 13:14:33;;;;;;;93.68;31.13;;;;;;;3.59;100.00;102460.75;5072864;28;20053;-48
2022/12/17 13:17:01;;;;;;;86.68;30.77;;;;;;;3.86;100.00;102468.47;5077048;28;20052;-53
2022/12/17 13:19:30;;;;;;;97.80;33.22;;;;;;;3.42;100.00;102467.19;5075075;28;20570;-49
2022/12/17 13:21:56;;;;;;;96.70;33.38;;;;;;;3.21;100.00;102473.03;5071920;28;20059;-52
2022/12/17 13:24:24;;;;;;;96.00;34.33;;;;;;;3.38;100.00;102466.59;5078307;28;20106;-52
2022/12/17 13:26:50;;;;;;;84.53;30.08;;;;;;;3.56;100.00;102460.94;5074253;28;20120;-57
2022/12/17 13:29:32;;;;;;;85.78;29.75;;;;;;;3.10;100.00;102465.00;5071786;28;20036;-50
2022/12/17 13:32:13;;;;;;;105.80;34.40;;;;;;;3.27;100.00;102464.69;5073401;28;20064;-54
2022/12/17 13:34:59;;;;;;;91.45;30.65;;;;;;;3.37;100.00;102464.91;5071030;28;20062;-52
2022/12/17 13:37:43;;;;;;;91.07;31.88;;;;;;;3.53;100.00;102455.84;5077714;28;20115;-53
2022/12/17 13:40:25;;;;;;;97.63;31.42;;;;;;;3.27;100.00;102446.19;5072942;28;20029;-52
2022/12/17 13:42:50;;;;;;;102.55;32.88;;;;;;;3.37;100.00;102453.47;5072715;28;20058;-55
2022/12/17 13:45:23;;;;;;;96.57;33.20;;;;;;;3.33;100.00;102449.34;5078907;28;20100;-51
2022/12/17 13:47:57;;;;;;;94.15;31.45;;;;;;;3.37;100.00;102450.81;5075970;28;20056;-51
2022/12/17 13:50:26;;;;;;;100.60;33.53;;;;;;;3.37;100.00;102461.41;5073216;28;20041;-54
2022/12/17 13:52:52;;;;;;;89.10;32.13;;;;;;;3.50;100.00;102451.66;5079405;28;20037;-51
2022/12/17 13:55:22;;;;;;;95.05;33.47;;;;;;;3.35;100.00;102455.38;5072410;28;20053;-50
2022/12/17 13:57:49;;;;;;;90.38;31.05;;;;;;;3.52;100.00;102455.03;5070815;28;20044;-48
2022/12/17 14:00:32;;;;;;;87.72;32.88;;;;;;;3.44;100.00;102457.34;5075199;28;20033;-50
2022/12/17 14:03:09;;;;;;;97.88;33.13;;;;;;;3.00;100.00;102456.88;5076795;28;20044;-51
2022/12/17 14:05:37;;;;;;;89.78;32.47;;;;;;;3.19;100.00;102464.38;5075269;28;20066;-49
2022/12/17 14:08:04;;;;;;;91.43;31.08;;;;;;;2.95;100.00;102462.47;5076559;28;20037;-51
2022/12/17 14:10:29;;;;;;;;;;;;;;;3.02;100.00;102452.31;5074341;28;20040;-51
2022/12/17 14:13:07;;;;;;;101.33;32.73;;;;;;;2.66;100.00;102457.38;5071359;28;19949;-49
2022/12/17 14:15:33;;;;;;;93.82;34.75;;;;;;;3.10;100.00;102470.31;5069827;28;20029;-50
2022/12/17 14:17:59;;;;;;;91.45;31.63;;;;;;;3.23;100.00;102468.50;5070346;28;20048;-54
2022/12/17 14:20:29;;;;;;;94.35;31.95;;;;;;;3.01;100.00;102464.72;5075893;28;20068;-53
2022/12/17 14:23:00;;;;;;;99.40;32.08;;;;;;;3.19;100.00;102466.19;5073254;28;20032;-48
2022/12/17 14:25:29;;;;;;;88.25;30.48;;;;;;;2.97;100.00;102468.47;5076582;28;20052;-51
2022/12/17 14:28:01;;;;;;;94.50;31.40;;;;;;;3.01;100.00;102463.84;5070493;28;20024;-51
2022/12/17 14:30:37;;;;;;;97.82;31.60;;;;;;;3.07;100.00;102462.59;5075630;28;20079;-50
2022/12/17 14:33:03;;;;;;;88.22;31.17;;;;;;;3.98;100.00;102476.50;5075458;28;20052;-53
2022/12/17 14:35:32;;;;;;;90.65;31.98;;;;;;;2.92;100.00;102489.09;5076276;28;20037;-55
2022/12/17 14:37:58;;;;;;;90.65;30.15;;;;;;;3.17;100.00;102478.66;5072630;28;20330;-50
2022/12/17 14:40:25;;;;;;;84.87;29.33;;;;;;;2.79;100.00;102470.59;5076140;28;20040;-53
2022/12/17 14:42:57;;;;;;;95.78;30.08;;;;;;;3.12;100.00;102478.97;5075024;28;20032;-52
2022/12/17 14:45:25;;;;;;;78.93;26.52;;;;;;;2.83;100.00;102479.16;5072610;28;20036;-52
2022/12/17 14:48:05;;;;;;;94.32;31.63;;;;;;;2.97;100.00;102471.13;5075740;28;20033;-51
2022/12/17 14:50:36;;;;;;;89.43;31.30;;;;;;;2.80;100.00;102485.50;5077047;28;20078;-51
2022/12/17 14:53:21;;;;;;;91.00;30.73;;;;;;;3.13;100.00;102485.94;5075178;28;20032;-50
2022/12/17 14:55:57;;;;;;;108.40;32.63;;;;;;;2.61;100.00;102483.25;5069258;28;20037;-50
2022/12/17 14:58:26;;;;;;;96.32;31.70;;;;;;;2.77;100.00;102480.41;5073543;28;20047;-53
2022/12/17 15:00:56;;;;;;;100.47;33.78;;;;;;;2.78;100.00;102483.91;5075849;28;20037;-52
2022/12/17 15:03:32;;;;;;;91.32;30.13;;;;;;;2.53;100.00;102488.19;5072129;28;20052;-51
2022/12/17 15:06:01;;;;;;;99.00;33.83;;;;;;;2.73;100.00;102484.22;5073555;28;20040;-50
2022/12/17 15:08:30;;;;;;;99.07;33.70;;;;;;;3.07;100.00;102491.66;5074110;28;20032;-53
2022/12/17 15:10:56;;;;;;;92.78;31.33;;;;;;;2.55;100.00;102496.88;5067537;28;20029;-50
2022/12/17 15:13:21;;;;;;;95.40;32.00;;;;;;;2.94;100.00;102499.59;5073656;28;20055;-52
2022/12/17 15:15:47;;;;;;;91.90;28.20;;;;;;;2.75;100.00;102492.88;5075832;28;20048;-52
2022/12/17 15:18:13;;;;;;;71.30;25.00;;;;;;;2.76;100.00;102506.94;5080918;28;20040;-52
2022/12/17 15:20:39;;;;;;;89.43;28.88;;;;;;;2.56;100.00;102503.84;5075577;28;20055;-48
2022/12/17 15:23:04;;;;;;;92.50;31.63;;;;;;;2.31;100.00;102505.47;5077252;28;20104;-54
2022/12/17 15:25:30;;;;;;;84.93;27.87;;;;;;;2.10;100.00;102508.53;5074712;28;20048;-53
2022/12/17 15:27:55;;;;;;;87.47;31.00;;;;;;;2.13;100.00;102499.56;5076233;28;20040;-53
2022/12/17 15:30:21;;;;;;;89.60;29.13;;;;;;;3.10;100.00;102510.78;5078054;28;20033;-50
2022/12/17 15:32:46;;;;;;;81.40;26.43;;;;;;;4.08;100.00;102509.28;5073695;28;20049;-50
2022/12/17 15:35:12;;;;;;;95.70;29.87;;;;;;;4.71;100.00;102527.66;5076881;28;20024;-52
2022/12/17 15:37:38;;;;;;;;;;;;;;;4.88;100.00;102539.63;5085240;28;20059;-51
2022/12/17 15:40:05;;;;;;;96.00;33.43;;;;;;;4.37;100.00;102534.63;5079341;28;19926;-53
2022/12/17 15:45:15;;;;;;;99.53;29.48;;;;;;;4.45;100.00;102540.19;5079361;28;20033;-52
2022/12/17 15:47:41;;;;;;;91.88;34.08;;;;;;;4.34;100.00;102540.13;5079814;28;20035;-54
2022/12/17 15:50:06;;;;;;;88.10;28.93;;;;;;;3.23;100.00;102539.91;5078678;28;20056;-54
2022/12/17 15:52:32;;;;;;;94.53;30.40;;;;;;;4.53;100.00;102534.31;5080092;28;20036;-52
2022/12/17 15:54:57;;;;;;;80.90;25.67;;;;;;;3.90;100.00;102530.00;5077476;28;20029;-50
2022/12/17 15:57:23;;;;;;;79.27;24.93;;;;;;;4.12;100.00;102533.75;5076356;28;20092;-51
2022/12/17 15:59:50;;;;;;;87.70;29.10;;;;;;;2.75;100.00;102535.16;5083786;28;20278;-55
2022/12/17 16:02:15;;;;;;;96.80;32.42;;;;;;;3.32;100.00;102537.56;5084237;28;20273;-48
2022/12/17 16:04:41;;;;;;;87.45;28.75;;;;;;;4.40;100.00;102539.69;5076881;28;20088;-56
2022/12/17 16:07:06;;;;;;;95.20;30.73;;;;;;;4.04;100.00;102533.44;5079555;28;20047;-50
2022/12/17 16:09:32;;;;;;;89.57;27.73;;;;;;;3.90;100.00;102540.59;5082275;28;20082;-52
2022/12/17 16:11:58;;;;;;;94.03;31.05;;;;;;;3.93;100.00;102545.66;5074546;28;20040;-52
2022/12/17 16:14:24;;;;;;;102.68;30.20;;;;;;;3.36;100.00;102539.91;5077596;28;20059;-50
2022/12/17 16:16:50;;;;;;;91.33;29.47;;;;;;;2.26;100.00;102549.78;5081009;28;20032;-51
2022/12/17 16:19:16;;;;;;;96.50;28.98;;;;;;;2.33;100.00;102548.44;5077207;28;20266;-48
2022/12/17 16:21:41;;;;;;;86.88;27.05;;;;;;;2.52;100.00;102549.88;5082587;28;20036;-53
2022/12/17 16:24:07;;;;;;;92.83;29.20;;;;;;;2.71;100.00;102549.53;5073644;28;20041;-51
2022/12/17 16:26:32;;;;;;;88.85;28.88;;;;;;;3.48;100.00;102559.38;5076366;28;20084;-49
2022/12/17 16:28:58;;;;;;;92.93;26.57;;;;;;;2.65;100.00;102556.06;5076508;28;20071;-50
2022/12/17 16:31:24;;;;;;;74.77;25.30;;;;;;;2.86;100.00;102560.88;5074965;28;20041;-50
2022/12/17 16:33:49;;;;;;;92.68;27.00;;;;;;;2.09;100.00;102549.06;5078232;28;20096;-49
2022/12/17 16:36:18;;;;;;;88.78;27.23;;;;;;;1.90;100.00;102551.16;5076238;28;20041;-53
2022/12/17 16:38:48;;;;;;;94.45;29.27;;;;;;;2.09;100.00;102546.44;5071610;28;20028;-56
2022/12/17 16:41:15;;;;;;;96.40;28.95;;;;;;;2.12;100.00;102548.88;5073728;28;20037;-48
2022/12/17 16:43:41;;;;;;;91.15;27.02;;;;;;;3.58;100.00;102552.47;5072135;28;20085;-50
2022/12/17 16:46:33;;;;;;;94.70;28.70;;;;;;;2.19;100.00;102545.84;5076402;28;20063;-49
2022/12/17 16:49:07;;;;;;;89.95;29.70;;;;;;;2.75;100.00;102545.72;5077640;28;20052;-49
2022/12/17 16:51:33;;;;;;;89.88;26.50;;;;;;;2.43;100.00;102556.63;5076108;28;20032;-55
2022/12/17 16:54:03;;;;;;;93.57;29.40;;;;;;;3.56;100.00;102548.22;5076579;28;20067;-51
2022/12/17 16:56:30;;;;;;;95.40;29.88;;;;;;;2.95;100.00;102547.03;5071766;28;20036;-53
2022/12/17 16:58:55;;;;;;;107.63;30.17;;;;;;;3.93;100.00;102550.13;5077788;28;20036;-51
2022/12/17 17:01:28;;;;;;;88.57;26.13;;;;;;;3.34;100.00;102551.53;5073893;28;20093;-53
2022/12/17 17:03:54;;;;;;;93.07;30.30;;;;;;;3.34;100.00;102548.88;5071981;28;20029;-49
2022/12/17 17:06:20;;;;;;;88.43;26.85;;;;;;;3.20;100.00;102550.66;5071371;28;20041;-49
2022/12/17 17:08:46;;;;;;;81.38;27.58;;;;;;;2.22;100.00;102558.84;5076874;28;20044;-49
2022/12/17 17:11:15;;;;;;;96.32;29.20;;;;;;;2.04;100.00;102545.03;5073270;28;20032;-49
2022/12/17 17:13:41;;;;;;;92.60;26.63;;;;;;;1.86;100.00;102543.44;5076426;28;20033;-52
2022/12/17 17:16:08;;;;;;;97.45;29.52;;;;;;;3.10;100.00;102550.44;5069543;28;20048;-47
2022/12/17 17:18:35;;;;;;;106.20;32.70;;;;;;;2.03;100.00;102554.72;5074019;28;20041;-49
2022/12/17 17:21:19;;;;;;;88.63;26.85;;;;;;;2.19;100.00;102569.59;5075761;28;20037;-49
2022/12/17 17:23:46;;;;;;;98.57;28.15;;;;;;;1.82;100.00;102573.56;5077551;28;20088;-49
2022/12/17 17:26:12;;;;;;;92.32;32.40;;;;;;;1.89;100.00;102570.59;5070454;28;20504;-53
2022/12/17 17:28:38;;;;;;;97.32;30.58;;;;;;;1.91;100.00;102566.06;5071460;28;20040;-52
2022/12/17 17:31:06;;;;;;;109.55;31.85;;;;;;;2.21;100.00;102559.78;5074210;28;20068;-50
2022/12/17 17:33:34;;;;;;;107.70;30.77;;;;;;;2.20;100.00;102558.09;5073508;28;20028;-51
2022/12/17 17:36:04;;;;;;;100.70;32.65;;;;;;;2.47;100.00;102558.13;5076548;28;20037;-52
2022/12/17 17:38:33;;;;;;;98.20;28.58;;;;;;;2.87;100.00;102557.28;5074732;28;20080;-51
2022/12/17 17:40:59;;;;;;;103.85;31.13;;;;;;;2.31;100.00;102560.91;5079089;28;20105;-51
2022/12/17 17:43:24;;;;;;;103.78;32.42;;;;;;;2.51;100.00;102564.03;5076576;28;20025;-49
2022/12/17 17:45:50;;;;;;;106.60;30.10;;;;;;;2.02;100.00;102568.84;5077673;28;20059;-53
2022/12/17 17:48:15;;;;;;;106.78;33.22;;;;;;;1.89;100.00;102574.06;5076879;28;20036;-52
2022/12/17 17:50:41;;;;;;;104.50;30.47;;;;;;;3.07;100.00;102563.03;5076723;28;20032;-53
2022/12/17 17:53:07;;;;;;;110.22;31.00;;;;;;;2.93;100.00;102556.88;5076068;28;20308;-50
2022/12/17 17:55:34;;;;;;;104.63;31.52;;;;;;;2.91;100.00;102561.41;5077539;28;20028;-52
2022/12/17 17:57:59;;;;;;;116.85;31.50;;;;;;;3.18;100.00;102562.31;5077746;28;20037;-53
2022/12/17 18:00:25;;;;;;;112.37;32.70;;;;;;;2.94;100.00;102566.50;5079519;28;20107;-54
2022/12/17 18:02:50;;;;;;;115.40;34.70;;;;;;;2.73;100.00;102571.41;5076159;28;20045;-50
2022/12/17 18:05:15;;;;;;;94.40;28.33;;;;;;;2.38;100.00;102580.69;5073631;28;20044;-50
2022/12/17 18:07:41;;;;;;;110.63;35.27;;;;;;;2.38;100.00;102591.25;5080040;28;20265;-49
2022/12/17 18:10:07;;;;;;;112.77;35.20;;;;;;;2.12;100.00;102591.09;5076643;28;20096;-50
2022/12/17 18:15:17;;;;;;;109.63;32.15;;;;;;;2.15;100.00;102590.91;5082905;28;20024;-50
2022/12/17 18:17:45;;;;;;;99.80;27.53;;;;;;;1.75;100.00;102588.09;5082604;28;20051;-49
2022/12/17 18:20:11;;;;;;;105.07;29.20;;;;;;;1.83;100.00;102585.00;5078267;28;20037;-47
2022/12/17 18:22:36;;;;;;;127.55;30.10;;;;;;;1.66;100.00;102593.94;5076497;28;20100;-51
2022/12/17 18:25:03;;;;;;;121.20;34.65;;;;;;;2.03;100.00;102591.66;5077279;28;20036;-47
2022/12/17 18:27:28;;;;;;;128.23;32.42;;;;;;;1.79;100.00;102599.31;5077800;28;20055;-48
2022/12/17 18:29:54;;;;;;;131.73;34.03;;;;;;;2.02;100.00;102599.69;5077177;28;20076;-50
2022/12/17 18:32:19;;;;;;;112.77;31.30;;;;;;;1.77;100.00;102596.78;5074581;28;20048;-50
2022/12/17 18:34:45;;;;;;;119.28;31.05;;;;;;;1.65;100.00;102586.97;5079258;28;20035;-46
2022/12/17 18:37:10;;;;;;;119.77;33.23;;;;;;;1.74;100.00;102591.69;5081311;28;20052;-50
2022/12/17 18:39:36;;;;;;;125.45;33.88;;;;;;;1.60;100.00;102589.03;5072717;28;20048;-49
2022/12/17 18:44:46;;;;;;;109.55;30.30;;;;;;;2.04;100.00;102593.34;5077943;28;20036;-50
2022/12/17 18:47:11;;;;;;;116.20;31.63;;;;;;;1.39;100.00;102590.25;5080456;28;20043;-50
2022/12/17 18:49:38;;;;;;;125.57;33.47;;;;;;;1.46;100.00;102596.00;5080806;28;20032;-47
2022/12/17 18:52:04;;;;;;;108.20;29.33;;;;;;;1.28;100.00;102597.94;5083001;28;20103;-48
2022/12/17 18:54:31;;;;;;;134.70;32.40;;;;;;;1.18;100.00;102608.19;5080802;28;20029;-48
2022/12/17 18:56:57;;;;;;;124.57;31.17;;;;;;;1.11;100.00;102596.28;5081324;28;20032;-51
2022/12/17 18:59:25;;;;;;;117.60;31.47;;;;;;;1.39;100.00;102592.88;5083890;28;20044;-50
2022/12/17 19:01:52;;;;;;;114.20;33.92;;;;;;;1.62;100.00;102592.44;5080733;28;20084;-50
2022/12/17 19:04:19;;;;;;;129.93;32.30;;;;;;;2.00;100.00;102590.09;5083577;28;20045;-49
2022/12/17 19:06:47;;;;;;;127.55;33.22;;;;;;;1.25;100.00;102588.41;5079835;28;20032;-49
2022/12/17 19:09:19;;;;;;;132.18;36.00;;;;;;;1.19;100.00;102591.44;5081767;28;20032;-50
2022/12/17 19:11:45;;;;;;;121.13;32.10;;;;;;;1.25;100.00;102598.97;5080828;28;20419;-52
2022/12/17 19:14:11;;;;;;;142.52;37.10;;;;;;;1.39;100.00;102600.78;5082327;28;20044;-49
2022/12/17 19:16:37;;;;;;;136.70;38.30;;;;;;;1.34;100.00;102610.75;5090385;28;20037;-51
2022/12/17 19:19:04;;;;;;;127.25;35.08;;;;;;;1.27;100.00;102599.72;5084084;28;20045;-48
2022/12/17 19:21:32;;;;;;;116.18;35.55;;;;;;;1.05;100.00;102604.56;5077923;28;20073;-52
2022/12/17 19:24:04;;;;;;;119.72;34.97;;;;;;;1.46;100.00;102598.63;5083420;28;20060;-48
2022/12/17 19:26:30;;;;;;;128.88;35.05;;;;;;;1.52;100.00;102608.81;5080924;28;20029;-53
2022/12/17 19:28:58;;;;;;;114.60;33.20;;;;;;;1.47;100.00;102608.25;5078889;28;20059;-49
2022/12/17 19:31:26;;;;;;;106.97;30.88;;;;;;;1.81;100.00;102610.63;5081472;28;20109;-51
2022/12/17 19:33:54;;;;;;;117.75;35.47;;;;;;;1.23;100.00;102605.25;5079471;28;20024;-50
2022/12/17 19:36:21;;;;;;;118.90;33.50;;;;;;;1.24;100.00;102615.72;5086008;28;20028;-50
2022/12/17 19:38:51;;;;;;;132.85;35.63;;;;;;;0.83;100.00;102613.69;5078222;28;20033;-50
2022/12/17 19:41:18;;;;;;;110.93;33.78;;;;;;;0.99;100.00;102617.16;5074609;28;20056;-50
2022/12/17 19:43:46;;;;;;;131.43;36.53;;;;;;;0.78;100.00;102621.00;5085005;28;20028;-52
2022/12/17 19:46:16;;;;;;;119.00;34.13;;;;;;;1.08;100.00;102625.44;5076761;28;20036;-50
2022/12/17 19:48:43;;;;;;;118.38;34.30;;;;;;;1.12;100.00;102626.97;5084643;28;20037;-49
2022/12/17 19:51:10;;;;;;;118.07;33.97;;;;;;;1.51;100.00;102624.75;5080895;28;20063;-48
2022/12/17 19:53:37;;;;;;;129.27;35.92;;;;;;;1.38;100.00;102629.88;5086282;28;20044;-50
2022/12/17 19:56:28;;;;;;;120.78;34.47;;;;;;;1.27;100.00;102634.00;5080154;28;20024;-50
2022/12/17 19:58:56;;;;;;;136.57;36.08;;;;;;;1.18;100.00;102631.03;5075503;28;20071;-48
2022/12/17 20:01:28;;;;;;;114.22;32.70;;;;;;;1.92;100.00;102633.72;5078405;28;20036;-53
2022/12/17 20:03:54;;;;;;;107.22;35.35;;;;;;;1.06;100.00;102627.34;5084623;28;20040;-48
2022/12/17 20:06:23;;;;;;;118.60;33.95;;;;;;;1.14;100.00;102630.34;5080179;28;20040;-55
2022/12/17 20:08:49;;;;;;;103.75;31.65;;;;;;;1.04;100.00;102632.72;5079361;28;20059;-52
2022/12/17 20:11:34;;;;;;;115.88;34.05;;;;;;;1.19;100.00;102641.50;5082025;28;20029;-51
2022/12/17 20:14:19;;;;;;;125.60;36.05;;;;;;;1.17;100.00;102640.75;5082751;28;20044;-48
2022/12/17 20:16:51;;;;;;;124.55;34.55;;;;;;;2.33;100.00;102654.06;5082298;28;20037;-53
2022/12/17 20:19:20;;;;;;;123.07;34.67;;;;;;;1.10;100.00;102652.56;5083246;28;20025;-50
2022/12/17 20:21:46;;;;;;;116.40;32.78;;;;;;;0.71;100.00;102666.13;5081066;28;20032;-52
2022/12/17 20:24:12;;;;;;;;;;;;;;;0.65;100.00;102663.00;5083250;28;20037;-48
2022/12/17 20:26:38;;;;;;;120.80;38.03;;;;;;;0.55;100.00;102660.00;5081146;28;19913;-47
2022/12/17 20:29:05;;;;;;;106.97;33.33;;;;;;;1.00;100.00;102657.50;5077863;28;20048;-48
2022/12/17 20:31:31;;;;;;;109.22;32.53;;;;;;;0.93;100.00;102654.41;5080376;28;20076;-50
2022/12/17 20:34:00;;;;;;;116.95;35.33;;;;;;;0.93;100.00;102651.75;5079975;28;20056;-48
2022/12/17 20:36:26;;;;;;;112.90;35.95;;;;;;;0.65;100.00;102649.81;5079434;28;20028;-53
2022/12/17 20:38:52;;;;;;;108.88;33.00;;;;;;;0.56;100.00;102651.19;5085688;28;20509;-47
2022/12/17 20:41:20;;;;;;;113.10;33.72;;;;;;;1.67;100.00;102645.75;5080044;28;20048;-49
2022/12/17 20:43:47;;;;;;;111.80;31.88;;;;;;;0.68;100.00;102645.22;5085787;28;20033;-52
2022/12/17 20:46:12;;;;;;;103.20;29.13;;;;;;;0.73;100.00;102652.03;5081040;28;20059;-52
2022/12/17 20:48:40;;;;;;;84.35;28.05;;;;;;;0.61;100.00;102657.03;5081446;28;20079;-50
2022/12/17 20:51:14;;;;;;;114.07;31.92;;;;;;;0.99;100.00;102642.63;5076361;28;20068;-49
2022/12/17 20:53:40;;;;;;;118.45;37.78;;;;;;;0.94;100.00;102631.53;5078995;28;20032;-54
2022/12/17 20:56:11;;;;;;;120.73;34.67;;;;;;;0.53;100.00;102632.91;5080559;28;20040;-52
2022/12/17 20:58:38;;;;;;;125.60;36.03;;;;;;;0.48;100.00;102637.59;5083027;28;20297;-54
2022/12/17 21:01:09;;;;;;;126.25;35.25;;;;;;;0.73;100.00;102630.97;5080171;28;20042;-50
2022/12/17 21:03:35;;;;;;;116.10;33.83;;;;;;;2.39;100.00;102634.31;5080307;28;20036;-49
2022/12/17 21:06:06;;;;;;;122.75;34.67;;;;;;;1.37;100.00;102630.81;5076483;28;20104;-50
2022/12/17 21:08:33;;;;;;;128.30;33.92;;;;;;;2.25;100.00;102632.56;5077026;28;20032;-50
2022/12/17 21:10:58;;;;;;;140.60;34.13;;;;;;;0.79;100.00;102627.97;5078033;28;20096;-54
2022/12/17 21:13:30;;;;;;;111.37;32.37;;;;;;;0.78;100.00;102634.19;5081528;28;20044;-52
2022/12/17 21:15:58;;;;;;;111.40;33.55;;;;;;;0.74;100.00;102636.13;5082661;28;20035;-52
2022/12/17 21:18:24;;;;;;;113.63;34.42;;;;;;;0.73;100.00;102636.22;5078361;28;20033;-50
2022/12/17 21:21:18;;;;;;;102.80;32.50;;;;;;;0.84;100.00;102636.47;5082710;28;20040;-48
2022/12/17 21:23:46;;;;;;;106.53;31.92;;;;;;;0.47;100.00;102630.63;5078661;28;20049;-49
2022/12/17 21:26:14;;;;;;;100.85;28.77;;;;;;;0.46;100.00;102629.78;5076938;28;20035;-52
2022/12/17 21:28:41;;;;;;;107.65;30.35;;;;;;;0.54;100.00;102647.78;5083378;28;20089;-50
2022/12/17 21:31:14;;;;;;;102.88;32.75;;;;;;;0.79;100.00;102649.03;5083395;28;20088;-50
2022/12/17 21:33:40;;;;;;;102.55;29.33;;;;;;;0.87;100.00;102657.34;5077306;28;20097;-51
2022/12/17 21:36:06;;;;;;;112.83;35.47;;;;;;;0.38;100.00;102658.31;5079003;28;20032;-52
2022/12/17 21:38:31;;;;;;;96.78;30.75;;;;;;;0.72;100.00;102669.59;5080732;28;20029;-47
2022/12/17 21:41:06;;;;;;;109.53;31.23;;;;;;;0.92;100.00;102668.47;5073584;28;20113;-51
2022/12/17 21:43:33;;;;;;;100.90;31.48;;;;;;;1.16;100.00;102669.81;5076831;28;20116;-50
2022/12/17 21:45:59;;;;;;;99.22;32.63;;;;;;;1.14;100.00;102661.97;5073678;28;20041;-47
2022/12/17 21:48:24;;;;;;;93.80;29.43;;;;;;;0.78;100.00;102669.25;5081207;28;20033;-51
2022/12/17 21:50:50;;;;;;;96.43;31.60;;;;;;;0.49;100.00;102677.00;5077545;28;20092;-50
2022/12/17 21:53:15;;;;;;;85.57;28.80;;;;;;;0.38;100.00;102672.31;5081272;28;20033;-47
2022/12/17 21:55:41;;;;;;;101.82;27.70;;;;;;;0.19;100.00;102680.34;5076725;28;20036;-52
2022/12/17 21:58:07;;;;;;;88.47;28.97;;;;;;;0.60;100.00;102676.41;5078139;28;20092;-53
2022/12/17 22:00:33;;;;;;;106.38;29.67;;;;;;;0.19;100.00;102685.59;5081281;28;20028;-50
2022/12/17 22:02:59;;;;;;;96.18;26.95;;;;;;;0.99;100.00;102690.94;5080861;28;20041;-49
2022/12/17 22:05:25;;;;;;;72.38;23.45;;;;;;;1.16;100.00;102683.00;5075677;28;20036;-52
2022/12/17 22:07:51;;;;;;;95.97;28.85;;;;;;;1.93;100.00;102696.94;5078702;28;20123;-50
2022/12/17 22:10:17;;;;;;;74.20;23.47;;;;;;;1.04;100.00;102697.72;5076374;28;20049;-50
2022/12/17 22:15:27;;;;;;;88.60;29.23;;;;;;;1.60;100.00;102705.06;5080180;28;20034;-50
2022/12/17 22:17:54;;;;;;;70.90;22.50;;;;;;;1.98;100.00;102707.22;5083074;28;20136;-48
2022/12/17 22:20:19;;;;;;;89.53;28.98;;;;;;;2.07;100.00;102704.03;5077810;28;20286;-50
2022/12/17 22:22:45;;;;;;;77.18;23.67;;;;;;;1.83;100.00;102709.84;5077683;28;20063;-49
2022/12/17 22:25:11;;;;;;;98.23;29.70;;;;;;;1.46;100.00;102704.09;5078439;28;20060;-49
2022/12/17 22:27:37;;;;;;;98.38;29.60;;;;;;;1.10;100.00;102700.88;5080607;28;20029;-53
2022/12/17 22:33:02;;;;;;;109.65;30.70;;;;;;;0.55;100.00;102717.94;5076637;28;20056;-52
2022/12/17 22:35:36;;;;;;;93.00;27.30;;;;;;;0.59;100.00;102719.47;5079870;28;20048;-47
2022/12/17 22:38:03;;;;;;;97.05;30.80;;;;;;;0.47;100.00;102701.72;5079682;28;20033;-48
2022/12/17 22:40:32;;;;;;;88.10;30.10;;;;;;;0.64;100.00;102704.25;5081919;28;20033;-50
2022/12/17 22:45:41;;;;;;;106.13;30.50;;;;;;;1.55;100.00;102703.56;5077161;28;20089;-50
2022/12/17 22:48:09;;;;;;;97.10;31.55;;;;;;;1.70;100.00;102700.97;5075804;28;20037;-49
2022/12/17 22:50:36;;;;;;;100.15;29.88;;;;;;;1.86;100.00;102699.13;5080407;28;20036;-48
2022/12/17 22:53:02;;;;;;;93.78;30.08;;;;;;;0.65;100.00;102687.53;5078017;28;20035;-50
2022/12/17 22:55:29;;;;;;;96.30;29.23;;;;;;;0.47;100.00;102693.81;5080516;28;20029;-48
2022/12/17 22:57:55;;;;;;;104.93;31.95;;;;;;;0.42;100.00;102691.44;5072878;28;20309;-48
2022/12/17 23:00:24;;;;;;;102.60;31.38;;;;;;;0.29;100.00;102685.97;5077831;28;20035;-49
2022/12/17 23:02:53;;;;;;;92.15;30.35;;;;;;;0.63;100.00;102686.75;5075238;28;20032;-50
2022/12/17 23:05:23;;;;;;;99.13;31.80;;;;;;;0.34;100.00;102686.56;5078168;28;20093;-47
2022/12/17 23:07:49;;;;;;;95.35;30.90;;;;;;;-0.04;100.00;102679.78;5079498;28;20032;-51
2022/12/17 23:10:16;;;;;;;102.53;30.58;;;;;;;-0.04;100.00;102678.91;5080436;28;20036;-52
2022/12/17 23:12:51;;;;;;;89.03;30.42;;;;;;;0.00;100.00;102691.00;5065763;28;20041;-49
2022/12/17 23:15:39;;;;;;;97.80;30.88;;;;;;;0.23;100.00;102691.53;5071702;28;20068;-46
2022/12/17 23:18:05;;;;;;;103.65;33.05;;;;;;;0.51;100.00;102693.53;5072401;28;20096;-47
2022/12/17 23:20:33;;;;;;;104.05;34.10;;;;;;;-0.04;100.00;102694.69;5073472;28;20024;-51
2022/12/17 23:22:59;;;;;;;107.38;32.47;;;;;;;0.26;100.00;102696.66;5075205;28;20282;-49
2022/12/17 23:25:26;;;;;;;97.50;31.70;;;;;;;0.08;100.00;102691.44;5074742;28;20058;-50
2022/12/17 23:27:51;;;;;;;106.72;33.55;;;;;;;0.79;100.00;102689.38;5076795;28;20069;-48
2022/12/17 23:30:18;;;;;;;101.57;31.40;;;;;;;0.78;100.00;102692.13;5072617;28;20507;-48
2022/12/17 23:32:44;;;;;;;103.72;31.20;;;;;;;0.54;100.00;102689.91;5076619;28;20079;-49
2022/12/17 23:35:11;;;;;;;105.78;33.20;;;;;;;0.50;100.00;102697.13;5080019;28;20028;-49
2022/12/17 23:37:37;;;;;;;111.75;35.50;;;;;;;0.49;100.00;102698.06;5080532;28;20043;-50
2022/12/17 23:40:04;;;;;;;96.07;30.50;;;;;;;0.25;100.00;102695.81;5082684;28;20096;-54
2022/12/17 23:42:30;;;;;;;113.03;34.03;;;;;;;0.23;100.00;102681.00;5076871;28;20044;-48
2022/12/17 23:44:55;;;;;;;100.33;30.90;;;;;;;0.09;100.00;102689.63;5077669;28;20033;-48
2022/12/17 23:47:21;;;;;;;104.07;33.27;;;;;;;0.28;100.00;102684.28;5078497;28;20272;-48
2022/12/17 23:49:46;;;;;;;105.13;33.73;;;;;;;0.37;100.00;102680.31;5076579;28;20273;-47
2022/12/17 23:52:12;;;;;;;104.05;32.55;;;;;;;0.66;100.00;102672.59;5078975;28;20028;-50
2022/12/17 23:54:38;;;;;;;76.93;25.97;;;;;;;0.59;100.00;102674.69;5083277;28;20059;-48
2022/12/17 23:57:03;;;;;;;99.97;31.33;;;;;;;0.62;100.00;102676.31;5079018;28;20214;-52
2022/12/17 23:59:29;;;;;;;106.05;30.67;;;;;;;0.67;100.00;102672.47;5081929;28;20495;-48
